Informes METAR proximidad

   
EHVK - Volkel Rnlafb, Netherlands
Distancia hasta la estación: SW 18 km
Actualización: 08-12-2019 15:55
Parcialmente Nublado  
Parcialmente Nublado  
   Viento: SW 20.4 km/h
Viento: SW 20.4 km/h
Temperatura: 9°C
Térmica: 6°C
Punto de rocio: 4°C
Humedad: 71%
Barometro: 999 hPa
Nublado: Parcialmente Nublado
Visibilidad: More than 10 km
detalles de la nube: Nubes dispersas 3600 ft,
Parcialmente Nublado 31000 ft
EHVK 081555Z AUTO 23011KT 200V260 9999 FEW036 SCT310 09/04 Q0999 BLU
EDLV - Niederrhein, Germany
Distancia hasta la estación: SE 25 km
Actualización: 08-12-2019 15:50
Claros  
Claros  
   Viento: SW 16.7 km/h
Viento: SW 16.7 km/h
Temperatura: 9°C
Térmica: 7°C
Punto de rocio: 4°C
Humedad: 71%
Barometro: 1000 hPa
Visibilidad: More than 10 km
detalles de la nube: Claros
EDLV 081550Z 23009KT CAVOK 09/04 Q1000
EHDL - Deelen Rnlafb, Netherlands
Distancia hasta la estación: N 35 km
Actualización: 08-12-2019 15:55
Parcialmente Nublado  
Parcialmente Nublado  
   Viento: SW 25.9 km/h
Viento: SW 25.9 km/h
Temperatura: 9°C
Térmica: 6°C
Punto de rocio: 5°C
Humedad: 76%
Barometro: 998 hPa
Nublado: Parcialmente Nublado
Visibilidad: More than 10 km
detalles de la nube: Nubes dispersas 3500 ft,
Parcialmente Nublado 8700 ft
EHDL 081555Z AUTO 23014KT 190V290 9999 FEW035 SCT087 09/05 Q0998 BLU
EHEH - Eindhoven Rnlafb, Netherlands
Distancia hasta la estación: SW 48 km
Actualización: 08-12-2019 15:55
Parcialmente Nublado  
Parcialmente Nublado  
   Viento: SW 20.4 km/h
Viento: SW 20.4 km/h
Temperatura: 9°C
Térmica: 6°C
Punto de rocio: 5°C
Humedad: 76%
Barometro: 1000 hPa
Nublado: Parcialmente Nublado
Visibilidad: More than 10 km
detalles de la nube: Parcialmente Nublado 30000 ft
EHEH 081555Z AUTO 22011KT 200V260 9999 SCT300 09/05 Q1000 BLU 24012G25KT 9999 SCT030
EHGR - Gilze-Rijen Rnla, Netherlands
Distancia hasta la estación: WSW 70 km
Actualización: 08-12-2019 15:55
Nublado  
Nublado  
   Viento: SW 18.5 km/h
Viento: SW 18.5 km/h
Temperatura: 10°C
Térmica: 8°C
Punto de rocio: 5°C
Humedad: 71%
Barometro: 999 hPa
Nublado: Nublado
Visibilidad: More than 10 km
detalles de la nube: Parcialmente nublado 3100 ft,
Nublado 3600 ft
EHGR 081555Z AUTO 22010KT 190V270 9999 BKN031 OVC036 10/05 Q0999 BLU
EBBL - Kleine-Brogel(Ba, Belgium
Distancia hasta la estación: SSW 71 km
Actualización: 08-12-2019 15:55
Claros  
Claros  
   Viento: SW 22.2 km/h
Viento: SW 22.2 km/h
Temperatura: 9°C
Térmica: 6°C
Punto de rocio: 4°C
Humedad: 71%
Barometro: 1001 hPa
Nublado: Claros
Visibilidad: More than 10 km
detalles de la nube: Claros
EBBL 081555Z AUTO 22012KT 9999 NCD 09/04 Q1001 BLU

Guión original por  Saratoga-weather.org Adaptado para la plantilla por  Weerstation Leuven